sensor_id;sensor_type;location;lat;lon;timestamp;temperature;humidity
7814;DHT22;3952;48.364;16.022;2023-04-24T00:01:03;11.80;99.90
7814;DHT22;3952;48.364;16.022;2023-04-24T00:03:33;11.90;99.90
7814;DHT22;3952;48.364;16.022;2023-04-24T00:06:00;11.80;99.90
7814;DHT22;3952;48.364;16.022;2023-04-24T00:08:28;11.80;99.90
7814;DHT22;3952;48.364;16.022;2023-04-24T00:10:55;11.80;99.90
7814;DHT22;3952;48.364;16.022;2023-04-24T00:13:22;11.70;99.90
7814;DHT22;3952;48.364;16.022;2023-04-24T00:15:49;11.70;99.90
7814;DHT22;3952;48.364;16.022;2023-04-24T00:18:18;11.70;99.90
7814;DHT22;3952;48.364;16.022;2023-04-24T00:20:45;11.60;99.90
7814;DHT22;3952;48.364;16.022;2023-04-24T00:23:13;11.60;99.90
7814;DHT22;3952;48.364;16.022;2023-04-24T00:25:40;11.50;99.90
7814;DHT22;3952;48.364;16.022;2023-04-24T00:28:07;11.50;99.90
7814;DHT22;3952;48.364;16.022;2023-04-24T00:30:35;11.40;99.90
7814;DHT22;3952;48.364;16.022;2023-04-24T00:33:02;11.40;99.90
7814;DHT22;3952;48.364;16.022;2023-04-24T00:35:30;11.30;99.90
7814;DHT22;3952;48.364;16.022;2023-04-24T00:37:58;11.20;99.90
7814;DHT22;3952;48.364;16.022;2023-04-24T00:40:25;11.20;99.90
7814;DHT22;3952;48.364;16.022;2023-04-24T00:42:52;11.20;99.90
7814;DHT22;3952;48.364;16.022;2023-04-24T00:45:20;11.10;99.90
7814;DHT22;3952;48.364;16.022;2023-04-24T00:47:48;11.10;99.90
7814;DHT22;3952;48.364;16.022;2023-04-24T00:50:15;11.00;99.90
7814;DHT22;3952;48.364;16.022;2023-04-24T00:52:44;10.90;99.90
7814;DHT22;3952;48.364;16.022;2023-04-24T00:55:11;10.90;99.90
7814;DHT22;3952;48.364;16.022;2023-04-24T00:57:38;10.90;99.90
7814;DHT22;3952;48.364;16.022;2023-04-24T01:00:07;10.90;99.90
7814;DHT22;3952;48.364;16.022;2023-04-24T01:02:38;10.90;99.90
7814;DHT22;3952;48.364;16.022;2023-04-24T01:05:10;10.80;99.90
7814;DHT22;3952;48.364;16.022;2023-04-24T01:07:38;10.60;99.90
7814;DHT22;3952;48.364;16.022;2023-04-24T01:10:09;10.60;99.90
7814;DHT22;3952;48.364;16.022;2023-04-24T01:12:37;10.50;99.90
7814;DHT22;3952;48.364;16.022;2023-04-24T01:15:05;10.50;99.90
7814;DHT22;3952;48.364;16.022;2023-04-24T01:17:32;10.50;99.90
7814;DHT22;3952;48.364;16.022;2023-04-24T01:20:00;10.50;99.90
7814;DHT22;3952;48.364;16.022;2023-04-24T01:22:33;10.60;99.90
7814;DHT22;3952;48.364;16.022;2023-04-24T01:25:01;10.60;99.90
7814;DHT22;3952;48.364;16.022;2023-04-24T01:27:29;10.60;99.90
7814;DHT22;3952;48.364;16.022;2023-04-24T01:29:56;10.60;99.90
7814;DHT22;3952;48.364;16.022;2023-04-24T01:32:24;10.60;99.90
7814;DHT22;3952;48.364;16.022;2023-04-24T01:34:51;10.60;99.90
7814;DHT22;3952;48.364;16.022;2023-04-24T01:37:19;10.60;99.90
7814;DHT22;3952;48.364;16.022;2023-04-24T01:39:47;10.60;99.90
7814;DHT22;3952;48.364;16.022;2023-04-24T01:42:15;10.60;99.90
7814;DHT22;3952;48.364;16.022;2023-04-24T01:44:43;10.60;99.90
7814;DHT22;3952;48.364;16.022;2023-04-24T01:47:10;10.50;99.90
7814;DHT22;3952;48.364;16.022;2023-04-24T01:49:38;10.50;99.90
7814;DHT22;3952;48.364;16.022;2023-04-24T01:52:06;10.50;99.90
7814;DHT22;3952;48.364;16.022;2023-04-24T01:54:33;10.50;99.90
7814;DHT22;3952;48.364;16.022;2023-04-24T01:57:02;10.50;99.90
7814;DHT22;3952;48.364;16.022;2023-04-24T01:59:30;10.40;99.90
7814;DHT22;3952;48.364;16.022;2023-04-24T02:01:58;10.40;99.90
7814;DHT22;3952;48.364;16.022;2023-04-24T02:04:25;10.40;99.90
7814;DHT22;3952;48.364;16.022;2023-04-24T02:06:52;10.40;99.90
7814;DHT22;3952;48.364;16.022;2023-04-24T02:09:20;10.50;99.90
7814;DHT22;3952;48.364;16.022;2023-04-24T02:11:47;10.50;99.90
7814;DHT22;3952;48.364;16.022;2023-04-24T02:14:16;10.40;99.90
7814;DHT22;3952;48.364;16.022;2023-04-24T02:16:43;10.50;99.90
7814;DHT22;3952;48.364;16.022;2023-04-24T02:19:10;10.40;99.90
7814;DHT22;3952;48.364;16.022;2023-04-24T02:21:38;10.40;99.90
7814;DHT22;3952;48.364;16.022;2023-04-24T02:24:05;10.50;99.90
7814;DHT22;3952;48.364;16.022;2023-04-24T02:26:32;10.40;99.90
7814;DHT22;3952;48.364;16.022;2023-04-24T02:28:59;10.40;99.90
7814;DHT22;3952;48.364;16.022;2023-04-24T02:31:28;10.50;99.90
7814;DHT22;3952;48.364;16.022;2023-04-24T02:33:55;10.50;99.90
7814;DHT22;3952;48.364;16.022;2023-04-24T02:36:23;10.50;99.90
7814;DHT22;3952;48.364;16.022;2023-04-24T02:38:50;10.50;99.90
7814;DHT22;3952;48.364;16.022;2023-04-24T02:41:17;10.50;99.90
7814;DHT22;3952;48.364;16.022;2023-04-24T02:43:45;10.50;99.90
7814;DHT22;3952;48.364;16.022;2023-04-24T02:46:12;10.50;99.90
7814;DHT22;3952;48.364;16.022;2023-04-24T02:48:41;10.40;99.90
7814;DHT22;3952;48.364;16.022;2023-04-24T02:51:08;10.30;99.90
7814;DHT22;3952;48.364;16.022;2023-04-24T02:53:35;10.30;99.90
7814;DHT22;3952;48.364;16.022;2023-04-24T02:56:02;10.20;99.90
7814;DHT22;3952;48.364;16.022;2023-04-24T02:58:30;10.20;99.90
7814;DHT22;3952;48.364;16.022;2023-04-24T03:00:57;10.20;99.90
7814;DHT22;3952;48.364;16.022;2023-04-24T03:03:24;10.10;99.90
7814;DHT22;3952;48.364;16.022;2023-04-24T03:05:53;10.10;99.90
7814;DHT22;3952;48.364;16.022;2023-04-24T03:08:21;10.10;99.90
7814;DHT22;3952;48.364;16.022;2023-04-24T03:10:48;10.10;99.90
7814;DHT22;3952;48.364;16.022;2023-04-24T03:13:15;10.10;99.90
7814;DHT22;3952;48.364;16.022;2023-04-24T03:15:43;10.10;99.90
7814;DHT22;3952;48.364;16.022;2023-04-24T03:18:12;10.10;99.90
7814;DHT22;3952;48.364;16.022;2023-04-24T03:20:39;10.00;99.90
7814;DHT22;3952;48.364;16.022;2023-04-24T03:23:08;9.90;99.90
7814;DHT22;3952;48.364;16.022;2023-04-24T03:25:35;9.90;99.90
7814;DHT22;3952;48.364;16.022;2023-04-24T03:28:02;9.80;99.90
7814;DHT22;3952;48.364;16.022;2023-04-24T03:30:29;9.80;99.90
7814;DHT22;3952;48.364;16.022;2023-04-24T03:32:56;9.80;99.90
7814;DHT22;3952;48.364;16.022;2023-04-24T03:35:23;9.70;99.90
7814;DHT22;3952;48.364;16.022;2023-04-24T03:37:51;9.70;99.90
7814;DHT22;3952;48.364;16.022;2023-04-24T03:40:19;9.70;99.90
7814;DHT22;3952;48.364;16.022;2023-04-24T03:42:46;9.70;99.90
7814;DHT22;3952;48.364;16.022;2023-04-24T03:45:14;9.70;99.90
7814;DHT22;3952;48.364;16.022;2023-04-24T03:47:41;9.70;99.90
7814;DHT22;3952;48.364;16.022;2023-04-24T03:50:09;9.70;99.90
7814;DHT22;3952;48.364;16.022;2023-04-24T03:52:36;9.70;99.90
7814;DHT22;3952;48.364;16.022;2023-04-24T03:55:04;9.70;99.90
7814;DHT22;3952;48.364;16.022;2023-04-24T03:57:33;9.80;99.90
7814;DHT22;3952;48.364;16.022;2023-04-24T04:00:00;9.70;99.90
7814;DHT22;3952;48.364;16.022;2023-04-24T04:02:32;9.80;99.90
7814;DHT22;3952;48.364;16.022;2023-04-24T04:04:59;9.80;99.90
7814;DHT22;3952;48.364;16.022;2023-04-24T04:07:26;9.80;99.90
7814;DHT22;3952;48.364;16.022;2023-04-24T04:09:55;9.90;99.90
7814;DHT22;3952;48.364;16.022;2023-04-24T04:12:22;9.90;99.90
7814;DHT22;3952;48.364;16.022;2023-04-24T04:14:51;9.90;99.90
7814;DHT22;3952;48.364;16.022;2023-04-24T04:17:18;9.90;99.90
7814;DHT22;3952;48.364;16.022;2023-04-24T04:19:45;10.00;99.90
7814;DHT22;3952;48.364;16.022;2023-04-24T04:22:12;10.00;99.90
7814;DHT22;3952;48.364;16.022;2023-04-24T04:24:39;10.00;99.90
7814;DHT22;3952;48.364;16.022;2023-04-24T04:27:07;10.10;99.90
7814;DHT22;3952;48.364;16.022;2023-04-24T04:29:34;10.00;99.90
7814;DHT22;3952;48.364;16.022;2023-04-24T04:32:03;10.10;99.90
7814;DHT22;3952;48.364;16.022;2023-04-24T04:34:30;10.10;99.90
7814;DHT22;3952;48.364;16.022;2023-04-24T04:36:59;10.10;99.90
7814;DHT22;3952;48.364;16.022;2023-04-24T04:39:27;10.20;99.90
7814;DHT22;3952;48.364;16.022;2023-04-24T04:41:55;10.20;99.90
7814;DHT22;3952;48.364;16.022;2023-04-24T04:44:22;10.30;99.90
7814;DHT22;3952;48.364;16.022;2023-04-24T04:46:50;10.30;99.90
7814;DHT22;3952;48.364;16.022;2023-04-24T04:49:20;10.30;99.90
7814;DHT22;3952;48.364;16.022;2023-04-24T04:51:49;10.40;99.90
7814;DHT22;3952;48.364;16.022;2023-04-24T04:54:17;10.40;99.90
7814;DHT22;3952;48.364;16.022;2023-04-24T04:56:44;10.50;99.90
7814;DHT22;3952;48.364;16.022;2023-04-24T04:59:11;10.50;99.90
7814;DHT22;3952;48.364;16.022;2023-04-24T05:01:38;10.60;99.90
7814;DHT22;3952;48.364;16.022;2023-04-24T05:04:06;10.60;99.90
7814;DHT22;3952;48.364;16.022;2023-04-24T05:06:34;10.70;99.90
7814;DHT22;3952;48.364;16.022;2023-04-24T05:09:02;10.80;99.90
7814;DHT22;3952;48.364;16.022;2023-04-24T05:11:29;11.00;99.90
7814;DHT22;3952;48.364;16.022;2023-04-24T05:13:57;11.30;99.90
7814;DHT22;3952;48.364;16.022;2023-04-24T05:16:24;11.50;99.90
7814;DHT22;3952;48.364;16.022;2023-04-24T05:18:51;11.70;99.90
7814;DHT22;3952;48.364;16.022;2023-04-24T05:21:18;11.90;99.90
7814;DHT22;3952;48.364;16.022;2023-04-24T05:23:47;12.00;99.90
7814;DHT22;3952;48.364;16.022;2023-04-24T05:26:14;12.20;99.90
7814;DHT22;3952;48.364;16.022;2023-04-24T05:28:42;12.30;99.90
7814;DHT22;3952;48.364;16.022;2023-04-24T05:31:09;12.40;99.90
7814;DHT22;3952;48.364;16.022;2023-04-24T05:33:36;12.50;99.90
7814;DHT22;3952;48.364;16.022;2023-04-24T05:36:04;12.60;99.90
7814;DHT22;3952;48.364;16.022;2023-04-24T05:38:31;12.70;99.90
7814;DHT22;3952;48.364;16.022;2023-04-24T05:41:00;12.70;99.90
7814;DHT22;3952;48.364;16.022;2023-04-24T05:43:27;12.70;99.90
7814;DHT22;3952;48.364;16.022;2023-04-24T05:45:54;12.80;99.90
7814;DHT22;3952;48.364;16.022;2023-04-24T05:48:22;12.80;99.90
7814;DHT22;3952;48.364;16.022;2023-04-24T05:50:49;12.90;99.90
7814;DHT22;3952;48.364;16.022;2023-04-24T05:53:17;12.90;99.90
7814;DHT22;3952;48.364;16.022;2023-04-24T05:55:45;13.00;99.90
7814;DHT22;3952;48.364;16.022;2023-04-24T05:58:14;13.00;99.90
7814;DHT22;3952;48.364;16.022;2023-04-24T06:00:41;13.00;99.90
7814;DHT22;3952;48.364;16.022;2023-04-24T06:03:10;13.10;99.90
7814;DHT22;3952;48.364;16.022;2023-04-24T06:05:37;13.10;99.90
7814;DHT22;3952;48.364;16.022;2023-04-24T06:08:04;13.20;99.90
7814;DHT22;3952;48.364;16.022;2023-04-24T06:10:32;13.20;99.90
7814;DHT22;3952;48.364;16.022;2023-04-24T06:12:59;13.20;99.90
7814;DHT22;3952;48.364;16.022;2023-04-24T06:15:30;13.30;99.90
7814;DHT22;3952;48.364;16.022;2023-04-24T06:17:57;13.30;99.90
7814;DHT22;3952;48.364;16.022;2023-04-24T06:20:24;13.40;99.90
7814;DHT22;3952;48.364;16.022;2023-04-24T06:22:52;13.40;99.90
7814;DHT22;3952;48.364;16.022;2023-04-24T06:25:19;13.40;99.90
7814;DHT22;3952;48.364;16.022;2023-04-24T06:27:46;13.50;99.90
7814;DHT22;3952;48.364;16.022;2023-04-24T06:30:14;13.60;99.90
7814;DHT22;3952;48.364;16.022;2023-04-24T06:32:42;13.70;99.90
7814;DHT22;3952;48.364;16.022;2023-04-24T06:35:09;13.70;99.90
7814;DHT22;3952;48.364;16.022;2023-04-24T06:37:39;13.90;99.90
7814;DHT22;3952;48.364;16.022;2023-04-24T06:40:07;14.00;99.90
7814;DHT22;3952;48.364;16.022;2023-04-24T06:42:34;14.10;99.90
7814;DHT22;3952;48.364;16.022;2023-04-24T06:45:02;14.20;99.90
7814;DHT22;3952;48.364;16.022;2023-04-24T06:47:29;14.30;99.90
7814;DHT22;3952;48.364;16.022;2023-04-24T06:49:58;14.40;99.90
7814;DHT22;3952;48.364;16.022;2023-04-24T06:52:26;14.40;99.90
7814;DHT22;3952;48.364;16.022;2023-04-24T06:55:00;14.50;99.90
7814;DHT22;3952;48.364;16.022;2023-04-24T06:57:27;14.50;99.90
7814;DHT22;3952;48.364;16.022;2023-04-24T06:59:55;14.50;99.90
7814;DHT22;3952;48.364;16.022;2023-04-24T07:02:23;14.50;99.90
7814;DHT22;3952;48.364;16.022;2023-04-24T07:04:50;14.60;99.90
7814;DHT22;3952;48.364;16.022;2023-04-24T07:07:20;14.70;99.90
7814;DHT22;3952;48.364;16.022;2023-04-24T07:09:47;14.60;99.90
7814;DHT22;3952;48.364;16.022;2023-04-24T07:12:14;14.70;99.90
7814;DHT22;3952;48.364;16.022;2023-04-24T07:14:42;14.70;99.90
7814;DHT22;3952;48.364;16.022;2023-04-24T07:17:09;14.70;99.90
7814;DHT22;3952;48.364;16.022;2023-04-24T07:19:38;14.80;99.90
7814;DHT22;3952;48.364;16.022;2023-04-24T07:22:06;14.80;99.90
7814;DHT22;3952;48.364;16.022;2023-04-24T07:24:34;14.80;99.90
7814;DHT22;3952;48.364;16.022;2023-04-24T07:27:02;14.80;99.90
7814;DHT22;3952;48.364;16.022;2023-04-24T07:29:29;14.70;99.90
7814;DHT22;3952;48.364;16.022;2023-04-24T07:31:56;14.70;99.90
7814;DHT22;3952;48.364;16.022;2023-04-24T07:34:24;14.60;99.90
7814;DHT22;3952;48.364;16.022;2023-04-24T07:36:51;14.60;99.90
7814;DHT22;3952;48.364;16.022;2023-04-24T07:39:19;14.60;99.90
7814;DHT22;3952;48.364;16.022;2023-04-24T07:41:47;14.60;99.90
7814;DHT22;3952;48.364;16.022;2023-04-24T07:44:14;14.70;99.90
7814;DHT22;3952;48.364;16.022;2023-04-24T07:46:42;14.70;99.90
7814;DHT22;3952;48.364;16.022;2023-04-24T07:49:09;14.60;99.90
7814;DHT22;3952;48.364;16.022;2023-04-24T07:51:36;14.60;99.90
7814;DHT22;3952;48.364;16.022;2023-04-24T07:54:04;14.60;99.90
7814;DHT22;3952;48.364;16.022;2023-04-24T07:56:32;14.50;99.90
7814;DHT22;3952;48.364;16.022;2023-04-24T07:59:01;14.60;99.90
7814;DHT22;3952;48.364;16.022;2023-04-24T08:01:28;14.60;99.90
7814;DHT22;3952;48.364;16.022;2023-04-24T08:03:56;14.60;99.90
7814;DHT22;3952;48.364;16.022;2023-04-24T08:06:23;14.60;99.90
7814;DHT22;3952;48.364;16.022;2023-04-24T08:08:53;14.50;99.90
7814;DHT22;3952;48.364;16.022;2023-04-24T08:11:20;14.50;99.90
7814;DHT22;3952;48.364;16.022;2023-04-24T08:13:48;14.50;99.90
7814;DHT22;3952;48.364;16.022;2023-04-24T08:16:16;14.50;99.90
7814;DHT22;3952;48.364;16.022;2023-04-24T08:18:44;14.50;99.90
7814;DHT22;3952;48.364;16.022;2023-04-24T08:21:11;14.50;99.90
7814;DHT22;3952;48.364;16.022;2023-04-24T08:23:42;14.40;99.90
7814;DHT22;3952;48.364;16.022;2023-04-24T08:26:10;14.40;99.90
7814;DHT22;3952;48.364;16.022;2023-04-24T08:28:37;14.30;99.90
7814;DHT22;3952;48.364;16.022;2023-04-24T08:31:05;14.30;99.90
7814;DHT22;3952;48.364;16.022;2023-04-24T08:33:33;14.30;99.90
7814;DHT22;3952;48.364;16.022;2023-04-24T08:36:02;14.20;99.90
7814;DHT22;3952;48.364;16.022;2023-04-24T08:38:29;14.10;99.90
7814;DHT22;3952;48.364;16.022;2023-04-24T08:40:57;14.10;99.90
7814;DHT22;3952;48.364;16.022;2023-04-24T08:43:25;14.00;99.90
7814;DHT22;3952;48.364;16.022;2023-04-24T08:45:55;14.00;99.90
7814;DHT22;3952;48.364;16.022;2023-04-24T08:48:22;14.00;99.90
7814;DHT22;3952;48.364;16.022;2023-04-24T08:50:51;14.00;99.90
7814;DHT22;3952;48.364;16.022;2023-04-24T08:53:19;13.90;99.90
7814;DHT22;3952;48.364;16.022;2023-04-24T08:55:47;13.90;99.90
7814;DHT22;3952;48.364;16.022;2023-04-24T08:58:16;13.80;99.90
7814;DHT22;3952;48.364;16.022;2023-04-24T09:00:43;13.70;99.90
7814;DHT22;3952;48.364;16.022;2023-04-24T09:03:13;13.70;99.90
7814;DHT22;3952;48.364;16.022;2023-04-24T09:05:42;13.60;99.90
7814;DHT22;3952;48.364;16.022;2023-04-24T09:08:13;13.60;99.90
7814;DHT22;3952;48.364;16.022;2023-04-24T09:10:41;13.50;99.90
7814;DHT22;3952;48.364;16.022;2023-04-24T09:13:08;13.50;99.90
7814;DHT22;3952;48.364;16.022;2023-04-24T09:15:36;13.50;99.90
7814;DHT22;3952;48.364;16.022;2023-04-24T09:18:04;13.40;99.90
7814;DHT22;3952;48.364;16.022;2023-04-24T09:20:32;13.40;99.90
7814;DHT22;3952;48.364;16.022;2023-04-24T09:23:01;13.30;99.90
7814;DHT22;3952;48.364;16.022;2023-04-24T09:25:33;13.30;99.90
7814;DHT22;3952;48.364;16.022;2023-04-24T09:28:02;13.30;99.90
7814;DHT22;3952;48.364;16.022;2023-04-24T09:30:29;13.20;99.90
7814;DHT22;3952;48.364;16.022;2023-04-24T09:33:13;13.20;99.90
7814;DHT22;3952;48.364;16.022;2023-04-24T09:35:41;13.10;99.90
7814;DHT22;3952;48.364;16.022;2023-04-24T09:38:09;13.10;99.90
7814;DHT22;3952;48.364;16.022;2023-04-24T09:40:39;13.00;99.90
7814;DHT22;3952;48.364;16.022;2023-04-24T09:43:10;13.00;99.90
7814;DHT22;3952;48.364;16.022;2023-04-24T09:45:39;13.00;99.90
7814;DHT22;3952;48.364;16.022;2023-04-24T09:48:09;12.90;99.90
7814;DHT22;3952;48.364;16.022;2023-04-24T09:50:36;12.90;99.90
7814;DHT22;3952;48.364;16.022;2023-04-24T09:53:05;12.80;99.90
7814;DHT22;3952;48.364;16.022;2023-04-24T09:55:42;12.80;99.90
7814;DHT22;3952;48.364;16.022;2023-04-24T09:58:11;12.80;99.90
7814;DHT22;3952;48.364;16.022;2023-04-24T10:00:39;12.80;99.90
7814;DHT22;3952;48.364;16.022;2023-04-24T10:03:06;12.80;99.90
7814;DHT22;3952;48.364;16.022;2023-04-24T10:05:35;12.80;99.90
7814;DHT22;3952;48.364;16.022;2023-04-24T10:08:04;12.80;99.90
7814;DHT22;3952;48.364;16.022;2023-04-24T10:10:32;12.80;99.90
7814;DHT22;3952;48.364;16.022;2023-04-24T10:13:01;12.80;99.90
7814;DHT22;3952;48.364;16.022;2023-04-24T10:15:28;12.80;99.90
7814;DHT22;3952;48.364;16.022;2023-04-24T10:17:58;12.80;99.90
7814;DHT22;3952;48.364;16.022;2023-04-24T10:20:27;12.80;99.90
7814;DHT22;3952;48.364;16.022;2023-04-24T10:22:57;12.80;99.90
7814;DHT22;3952;48.364;16.022;2023-04-24T10:25:26;12.80;99.90
7814;DHT22;3952;48.364;16.022;2023-04-24T10:27:55;12.80;99.90
7814;DHT22;3952;48.364;16.022;2023-04-24T10:30:27;12.80;99.90
7814;DHT22;3952;48.364;16.022;2023-04-24T10:32:55;12.80;99.90
7814;DHT22;3952;48.364;16.022;2023-04-24T10:35:23;12.80;99.90
7814;DHT22;3952;48.364;16.022;2023-04-24T10:37:56;12.80;99.90
7814;DHT22;3952;48.364;16.022;2023-04-24T10:40:27;12.80;99.90
7814;DHT22;3952;48.364;16.022;2023-04-24T10:42:54;12.80;99.90
7814;DHT22;3952;48.364;16.022;2023-04-24T10:45:23;12.70;99.90
7814;DHT22;3952;48.364;16.022;2023-04-24T10:47:57;12.70;99.90
7814;DHT22;3952;48.364;16.022;2023-04-24T10:50:27;12.70;99.90
7814;DHT22;3952;48.364;16.022;2023-04-24T10:53:05;12.80;99.90
7814;DHT22;3952;48.364;16.022;2023-04-24T10:55:40;12.80;99.90
7814;DHT22;3952;48.364;16.022;2023-04-24T10:58:08;12.80;99.90
7814;DHT22;3952;48.364;16.022;2023-04-24T11:00:37;12.80;99.90
7814;DHT22;3952;48.364;16.022;2023-04-24T11:03:08;12.80;99.90
7814;DHT22;3952;48.364;16.022;2023-04-24T11:06:01;12.80;99.90
7814;DHT22;3952;48.364;16.022;2023-04-24T11:08:30;12.80;99.90
7814;DHT22;3952;48.364;16.022;2023-04-24T11:11:00;12.80;99.90
7814;DHT22;3952;48.364;16.022;2023-04-24T11:14:04;12.90;99.90
7814;DHT22;3952;48.364;16.022;2023-04-24T11:16:42;12.90;99.90
7814;DHT22;3952;48.364;16.022;2023-04-24T11:19:20;12.90;99.90
7814;DHT22;3952;48.364;16.022;2023-04-24T11:21:55;13.00;99.90
7814;DHT22;3952;48.364;16.022;2023-04-24T11:24:31;13.10;99.90
7814;DHT22;3952;48.364;16.022;2023-04-24T11:27:05;13.20;99.90
7814;DHT22;3952;48.364;16.022;2023-04-24T11:29:41;13.30;99.90
7814;DHT22;3952;48.364;16.022;2023-04-24T11:32:26;13.40;99.90
7814;DHT22;3952;48.364;16.022;2023-04-24T11:34:56;13.50;99.90
7814;DHT22;3952;48.364;16.022;2023-04-24T11:37:26;13.60;99.90
7814;DHT22;3952;48.364;16.022;2023-04-24T11:39:54;13.60;99.90
7814;DHT22;3952;48.364;16.022;2023-04-24T11:42:22;13.70;99.90
7814;DHT22;3952;48.364;16.022;2023-04-24T11:44:53;13.70;99.90
7814;DHT22;3952;48.364;16.022;2023-04-24T11:47:28;13.80;99.90
7814;DHT22;3952;48.364;16.022;2023-04-24T11:49:58;13.90;99.90
7814;DHT22;3952;48.364;16.022;2023-04-24T11:52:25;14.10;99.90
7814;DHT22;3952;48.364;16.022;2023-04-24T11:54:52;14.30;99.90
7814;DHT22;3952;48.364;16.022;2023-04-24T11:57:21;14.40;99.90
7814;DHT22;3952;48.364;16.022;2023-04-24T11:59:48;14.70;99.90
7814;DHT22;3952;48.364;16.022;2023-04-24T12:02:25;14.90;99.90
7814;DHT22;3952;48.364;16.022;2023-04-24T12:04:53;15.10;99.90
7814;DHT22;3952;48.364;16.022;2023-04-24T12:07:22;15.30;99.90
7814;DHT22;3952;48.364;16.022;2023-04-24T12:09:55;15.40;99.90
7814;DHT22;3952;48.364;16.022;2023-04-24T12:12:25;15.50;99.90
7814;DHT22;3952;48.364;16.022;2023-04-24T12:14:54;15.40;99.90
7814;DHT22;3952;48.364;16.022;2023-04-24T12:17:26;15.50;99.90
7814;DHT22;3952;48.364;16.022;2023-04-24T12:19:57;15.60;99.90
7814;DHT22;3952;48.364;16.022;2023-04-24T12:22:27;15.70;99.90
7814;DHT22;3952;48.364;16.022;2023-04-24T12:24:59;15.80;99.90
7814;DHT22;3952;48.364;16.022;2023-04-24T12:27:28;15.90;99.90
7814;DHT22;3952;48.364;16.022;2023-04-24T12:29:56;15.50;99.90
7814;DHT22;3952;48.364;16.022;2023-04-24T12:32:23;15.90;99.90
7814;DHT22;3952;48.364;16.022;2023-04-24T12:34:52;16.00;99.90
7814;DHT22;3952;48.364;16.022;2023-04-24T12:37:19;16.00;99.90
7814;DHT22;3952;48.364;16.022;2023-04-24T12:40:01;15.90;99.90
7814;DHT22;3952;48.364;16.022;2023-04-24T12:42:29;15.90;99.90
7814;DHT22;3952;48.364;16.022;2023-04-24T12:44:57;15.80;99.90
7814;DHT22;3952;48.364;16.022;2023-04-24T12:47:27;15.80;99.90
7814;DHT22;3952;48.364;16.022;2023-04-24T12:49:54;15.90;99.90
7814;DHT22;3952;48.364;16.022;2023-04-24T12:52:22;16.00;99.90
7814;DHT22;3952;48.364;16.022;2023-04-24T12:54:50;16.10;99.90
7814;DHT22;3952;48.364;16.022;2023-04-24T12:57:18;16.10;99.90
7814;DHT22;3952;48.364;16.022;2023-04-24T12:59:46;16.00;99.90
7814;DHT22;3952;48.364;16.022;2023-04-24T13:02:13;16.00;99.90
7814;DHT22;3952;48.364;16.022;2023-04-24T13:04:44;16.00;99.90
7814;DHT22;3952;48.364;16.022;2023-04-24T13:07:12;16.00;99.90
7814;DHT22;3952;48.364;16.022;2023-04-24T13:09:39;15.90;99.90
7814;DHT22;3952;48.364;16.022;2023-04-24T13:12:07;15.80;99.90
7814;DHT22;3952;48.364;16.022;2023-04-24T13:14:36;15.60;99.90
7814;DHT22;3952;48.364;16.022;2023-04-24T13:17:03;15.40;99.90
7814;DHT22;3952;48.364;16.022;2023-04-24T13:19:36;15.30;99.90
7814;DHT22;3952;48.364;16.022;2023-04-24T13:22:03;15.10;99.90
7814;DHT22;3952;48.364;16.022;2023-04-24T13:24:31;15.00;99.90
7814;DHT22;3952;48.364;16.022;2023-04-24T13:26:58;14.90;99.90
7814;DHT22;3952;48.364;16.022;2023-04-24T13:29:26;14.90;99.90
7814;DHT22;3952;48.364;16.022;2023-04-24T13:31:55;14.90;99.90
7814;DHT22;3952;48.364;16.022;2023-04-24T13:34:22;15.10;99.90
7814;DHT22;3952;48.364;16.022;2023-04-24T13:36:50;15.10;99.90
7814;DHT22;3952;48.364;16.022;2023-04-24T13:39:18;15.10;99.90
7814;DHT22;3952;48.364;16.022;2023-04-24T13:41:45;15.20;99.90
7814;DHT22;3952;48.364;16.022;2023-04-24T13:44:14;15.20;99.90
7814;DHT22;3952;48.364;16.022;2023-04-24T13:46:41;15.20;99.90
7814;DHT22;3952;48.364;16.022;2023-04-24T13:49:11;15.20;99.90
7814;DHT22;3952;48.364;16.022;2023-04-24T13:51:38;15.20;99.90
7814;DHT22;3952;48.364;16.022;2023-04-24T13:54:06;15.30;99.90
7814;DHT22;3952;48.364;16.022;2023-04-24T13:56:33;15.30;99.90
7814;DHT22;3952;48.364;16.022;2023-04-24T13:59:01;15.30;99.90
7814;DHT22;3952;48.364;16.022;2023-04-24T14:01:28;15.30;99.90
7814;DHT22;3952;48.364;16.022;2023-04-24T14:03:55;15.30;99.90
7814;DHT22;3952;48.364;16.022;2023-04-24T14:06:24;15.30;99.90
7814;DHT22;3952;48.364;16.022;2023-04-24T14:08:51;15.30;99.90
7814;DHT22;3952;48.364;16.022;2023-04-24T14:11:19;15.30;99.90
7814;DHT22;3952;48.364;16.022;2023-04-24T14:13:46;15.30;99.90
7814;DHT22;3952;48.364;16.022;2023-04-24T14:16:13;15.30;99.90
7814;DHT22;3952;48.364;16.022;2023-04-24T14:18:41;15.30;99.90
7814;DHT22;3952;48.364;16.022;2023-04-24T14:21:08;15.30;99.90
7814;DHT22;3952;48.364;16.022;2023-04-24T14:23:37;15.30;99.90
7814;DHT22;3952;48.364;16.022;2023-04-24T14:26:04;15.20;99.90
7814;DHT22;3952;48.364;16.022;2023-04-24T14:28:32;15.20;99.90
7814;DHT22;3952;48.364;16.022;2023-04-24T14:30:59;15.10;99.90
7814;DHT22;3952;48.364;16.022;2023-04-24T14:33:26;15.20;99.90
7814;DHT22;3952;48.364;16.022;2023-04-24T14:35:53;15.10;99.90
7814;DHT22;3952;48.364;16.022;2023-04-24T14:38:21;15.10;99.90
7814;DHT22;3952;48.364;16.022;2023-04-24T14:40:50;15.00;99.90
7814;DHT22;3952;48.364;16.022;2023-04-24T14:43:17;15.00;99.90
7814;DHT22;3952;48.364;16.022;2023-04-24T14:45:44;14.90;99.90
7814;DHT22;3952;48.364;16.022;2023-04-24T14:48:11;14.80;99.90
7814;DHT22;3952;48.364;16.022;2023-04-24T14:50:38;14.70;99.90
7814;DHT22;3952;48.364;16.022;2023-04-24T14:53:06;14.60;99.90
7814;DHT22;3952;48.364;16.022;2023-04-24T14:55:33;14.50;99.90
7814;DHT22;3952;48.364;16.022;2023-04-24T14:58:03;14.40;99.90
7814;DHT22;3952;48.364;16.022;2023-04-24T15:00:31;14.40;99.90
7814;DHT22;3952;48.364;16.022;2023-04-24T15:02:58;14.30;99.90
7814;DHT22;3952;48.364;16.022;2023-04-24T15:05:25;14.20;99.90
7814;DHT22;3952;48.364;16.022;2023-04-24T15:07:52;14.20;99.90
7814;DHT22;3952;48.364;16.022;2023-04-24T15:10:20;14.10;99.90
7814;DHT22;3952;48.364;16.022;2023-04-24T15:12:48;14.00;99.90
7814;DHT22;3952;48.364;16.022;2023-04-24T15:15:17;13.80;99.90
7814;DHT22;3952;48.364;16.022;2023-04-24T15:17:45;13.60;99.90
7814;DHT22;3952;48.364;16.022;2023-04-24T15:20:12;13.60;99.90
7814;DHT22;3952;48.364;16.022;2023-04-24T15:22:40;13.50;99.90
7814;DHT22;3952;48.364;16.022;2023-04-24T15:25:08;13.50;99.90
7814;DHT22;3952;48.364;16.022;2023-04-24T15:27:42;13.50;99.90
7814;DHT22;3952;48.364;16.022;2023-04-24T15:30:10;13.30;99.90
7814;DHT22;3952;48.364;16.022;2023-04-24T15:32:39;13.20;99.90
7814;DHT22;3952;48.364;16.022;2023-04-24T15:35:08;13.10;99.90
7814;DHT22;3952;48.364;16.022;2023-04-24T15:37:35;13.00;99.90
7814;DHT22;3952;48.364;16.022;2023-04-24T15:40:03;13.00;99.90
7814;DHT22;3952;48.364;16.022;2023-04-24T15:42:32;12.90;99.90
7814;DHT22;3952;48.364;16.022;2023-04-24T15:44:59;12.80;99.90
7814;DHT22;3952;48.364;16.022;2023-04-24T15:47:27;12.70;99.90
7814;DHT22;3952;48.364;16.022;2023-04-24T15:49:55;12.70;99.90
7814;DHT22;3952;48.364;16.022;2023-04-24T15:52:25;12.70;99.90
7814;DHT22;3952;48.364;16.022;2023-04-24T15:54:52;12.70;99.90